LHA8837 KRNO-KBFI
Flight info
| Callsign | LHA8837 |
|---|---|
| Flight time | 1h 31m |
| Altitude | 40000 |
| Route | BLKJK DCT WNDEL J92 LMT J189 BTG |
| Aircraft | B752/M-SDE1E2FGIJ1RWYZE3/S |
Departure
| Time | 2026-05-05 16:40 |
|---|---|
| Airport | Reno Tahoe International Airport (KRNO) |
Arrival
| Time | 2026-05-05 18:12 |
|---|---|
| Airport | King County International Airport - Boeing Field (KBFI) |
| Time | Latitude | Longitude | Altitude | Speed | Heading |
|---|---|---|---|---|---|
| 2026-05-05 16:32 | 39.50805 | -119.77254 | 4419 ft | 0 kts | 89° |
| 2026-05-05 16:35 | 39.50805 | -119.77251 | 4419 ft | 1 kts | 89° |
| 2026-05-05 16:35 | 39.50806 | -119.77213 | 4419 ft | 5 kts | 88° |
| 2026-05-05 16:35 | 39.50815 | -119.77173 | 4419 ft | 4 kts | 46° |
| 2026-05-05 16:36 | 39.50841 | -119.77160 | 4419 ft | 4 kts | 6° |
| 2026-05-05 16:36 | 39.50882 | -119.77154 | 4420 ft | 8 kts | 6° |
| 2026-05-05 16:36 | 39.50946 | -119.77151 | 4420 ft | 9 kts | 0° |
| 2026-05-05 16:36 | 39.51009 | -119.77150 | 4420 ft | 8 kts | 0° |
| 2026-05-05 16:37 | 39.51067 | -119.77149 | 4421 ft | 7 kts | 0° |
| 2026-05-05 16:37 | 39.51141 | -119.77148 | 4421 ft | 16 kts | 0° |
| 2026-05-05 16:37 | 39.51267 | -119.77149 | 4422 ft | 18 kts | 359° |
| 2026-05-05 16:37 | 39.51382 | -119.77138 | 4422 ft | 11 kts | 34° |
| 2026-05-05 16:38 | 39.51396 | -119.77068 | 4422 ft | 7 kts | 99° |
| 2026-05-05 16:38 | 39.51383 | -119.77007 | 4422 ft | 6 kts | 109° |
| 2026-05-05 16:38 | 39.51371 | -119.76944 | 4422 ft | 7 kts | 95° |
| 2026-05-05 16:38 | 39.51373 | -119.76866 | 4422 ft | 13 kts | 88° |
| 2026-05-05 16:39 | 39.51373 | -119.76714 | 4422 ft | 13 kts | 99° |
| 2026-05-05 16:39 | 39.51337 | -119.76678 | 4422 ft | 5 kts | 167° |
| 2026-05-05 16:39 | 39.51299 | -119.76674 | 4422 ft | 6 kts | 177° |
| 2026-05-05 16:39 | 39.51251 | -119.76673 | 4421 ft | 7 kts | 180° |
| 2026-05-05 16:40 | 39.51090 | -119.76675 | 4420 ft | 56 kts | 180° |
| 2026-05-05 16:40 | 39.50375 | -119.76678 | 4416 ft | 147 kts | 179° |
| 2026-05-05 16:40 | 39.49146 | -119.76672 | 4896 ft | 190 kts | 180° |
| 2026-05-05 16:40 | 39.47900 | -119.76705 | 6174 ft | 179 kts | 182° |
| 2026-05-05 16:41 | 39.46607 | -119.76769 | 6562 ft | 198 kts | 182° |
| 2026-05-05 16:41 | 39.45181 | -119.76835 | 6952 ft | 216 kts | 181° |
| 2026-05-05 16:41 | 39.43613 | -119.76906 | 7373 ft | 235 kts | 181° |
| 2026-05-05 16:41 | 39.41915 | -119.76939 | 7929 ft | 248 kts | 179° |
| 2026-05-05 16:42 | 39.40145 | -119.76942 | 8428 ft | 268 kts | 179° |
| 2026-05-05 16:42 | 39.38214 | -119.76948 | 8895 ft | 289 kts | 178° |
| 2026-05-05 16:42 | 39.36129 | -119.76955 | 9536 ft | 304 kts | 178° |
| 2026-05-05 16:42 | 39.34016 | -119.76786 | 10376 ft | 308 kts | 163° |
| 2026-05-05 16:43 | 39.32104 | -119.75621 | 11245 ft | 303 kts | 136° |
| 2026-05-05 16:43 | 39.30780 | -119.73617 | 12122 ft | 296 kts | 116° |
| 2026-05-05 16:43 | 39.29708 | -119.71339 | 12985 ft | 299 kts | 114° |
| 2026-05-05 16:43 | 39.28737 | -119.68977 | 13604 ft | 304 kts | 104° |
| 2026-05-05 16:44 | 39.28318 | -119.66261 | 13912 ft | 315 kts | 85° |
| 2026-05-05 16:44 | 39.28610 | -119.63458 | 14193 ft | 328 kts | 69° |
| 2026-05-05 16:44 | 39.29623 | -119.60751 | 14489 ft | 344 kts | 53° |
| 2026-05-05 16:44 | 39.31120 | -119.58307 | 15199 ft | 349 kts | 51° |
| 2026-05-05 16:45 | 39.32574 | -119.55822 | 15941 ft | 354 kts | 52° |
| 2026-05-05 16:45 | 39.34037 | -119.53248 | 16733 ft | 357 kts | 52° |
| 2026-05-05 16:45 | 39.35553 | -119.50715 | 17389 ft | 362 kts | 46° |
| 2026-05-05 16:45 | 39.37395 | -119.48484 | 18105 ft | 366 kts | 42° |
| 2026-05-05 16:46 | 39.39258 | -119.46250 | 18846 ft | 369 kts | 43° |
| 2026-05-05 16:46 | 39.41154 | -119.43980 | 19659 ft | 371 kts | 43° |
| 2026-05-05 16:46 | 39.43102 | -119.41836 | 20334 ft | 376 kts | 36° |
| 2026-05-05 16:46 | 39.45394 | -119.40163 | 21061 ft | 381 kts | 25° |
| 2026-05-05 16:47 | 39.47921 | -119.39106 | 21785 ft | 386 kts | 15° |
| 2026-05-05 16:47 | 39.50576 | -119.38696 | 22471 ft | 394 kts | 5° |
| 2026-05-05 16:47 | 39.53359 | -119.38949 | 23048 ft | 404 kts | 354° |
| 2026-05-05 16:47 | 39.56072 | -119.39888 | 23759 ft | 412 kts | 345° |
| 2026-05-05 16:48 | 39.58690 | -119.41488 | 24335 ft | 423 kts | 335° |
| 2026-05-05 16:48 | 39.61132 | -119.43740 | 24875 ft | 435 kts | 325° |
| 2026-05-05 16:48 | 39.63288 | -119.46500 | 25340 ft | 445 kts | 320° |
| 2026-05-05 16:48 | 39.65481 | -119.49371 | 25897 ft | 445 kts | 323° |
| 2026-05-05 16:49 | 39.67708 | -119.52065 | 26454 ft | 445 kts | 324° |
| 2026-05-05 16:49 | 39.70030 | -119.54765 | 26819 ft | 450 kts | 326° |
| 2026-05-05 16:49 | 39.72395 | -119.57448 | 27306 ft | 452 kts | 326° |
| 2026-05-05 16:49 | 39.74757 | -119.60090 | 27817 ft | 453 kts | 327° |
| 2026-05-05 16:50 | 39.77174 | -119.62769 | 28190 ft | 457 kts | 327° |
| 2026-05-05 16:50 | 39.79591 | -119.65433 | 28584 ft | 460 kts | 327° |
| 2026-05-05 16:50 | 39.82029 | -119.68117 | 29091 ft | 460 kts | 328° |
| 2026-05-05 16:50 | 39.84497 | -119.70827 | 29409 ft | 465 kts | 328° |
| 2026-05-05 16:51 | 39.86945 | -119.73516 | 29864 ft | 465 kts | 328° |
| 2026-05-05 16:51 | 39.89409 | -119.76221 | 30204 ft | 468 kts | 328° |
| 2026-05-05 16:51 | 39.91907 | -119.78968 | 30543 ft | 471 kts | 328° |
| 2026-05-05 16:51 | 39.94409 | -119.81718 | 30898 ft | 473 kts | 328° |
| 2026-05-05 16:52 | 39.96928 | -119.84492 | 31351 ft | 471 kts | 328° |
| 2026-05-05 16:52 | 39.99416 | -119.87236 | 31867 ft | 469 kts | 329° |
| 2026-05-05 16:52 | 40.01899 | -119.89974 | 32344 ft | 467 kts | 329° |
| 2026-05-05 16:52 | 40.04357 | -119.92684 | 32634 ft | 469 kts | 329° |
| 2026-05-05 16:53 | 40.06842 | -119.95431 | 33155 ft | 466 kts | 329° |
| 2026-05-05 16:53 | 40.09322 | -119.98174 | 33573 ft | 465 kts | 329° |
| 2026-05-05 16:53 | 40.11748 | -120.00862 | 34064 ft | 463 kts | 330° |
| 2026-05-05 16:53 | 40.14223 | -120.03602 | 34561 ft | 461 kts | 329° |
| 2026-05-05 16:54 | 40.16627 | -120.06271 | 35110 ft | 457 kts | 329° |
| 2026-05-05 16:54 | 40.19060 | -120.08966 | 35384 ft | 459 kts | 329° |
| 2026-05-05 16:54 | 40.21493 | -120.11669 | 35831 ft | 457 kts | 329° |
| 2026-05-05 16:54 | 40.23889 | -120.14333 | 36167 ft | 457 kts | 329° |
| 2026-05-05 16:55 | 40.26325 | -120.17043 | 36439 ft | 457 kts | 329° |
| 2026-05-05 16:55 | 40.28722 | -120.19717 | 36845 ft | 455 kts | 329° |
| 2026-05-05 16:55 | 40.31174 | -120.22452 | 37134 ft | 455 kts | 329° |
| 2026-05-05 16:55 | 40.33620 | -120.25184 | 37331 ft | 456 kts | 329° |
| 2026-05-05 16:56 | 40.36086 | -120.27939 | 37636 ft | 454 kts | 329° |
| 2026-05-05 16:56 | 40.38504 | -120.30637 | 37856 ft | 454 kts | 329° |
| 2026-05-05 16:56 | 40.41019 | -120.33023 | 38025 ft | 443 kts | 338° |
| 2026-05-05 16:56 | 40.43706 | -120.35068 | 38254 ft | 441 kts | 339° |
| 2026-05-05 16:57 | 40.46376 | -120.37113 | 38437 ft | 442 kts | 338° |
| 2026-05-05 16:57 | 40.49044 | -120.39175 | 38638 ft | 442 kts | 338° |
| 2026-05-05 16:57 | 40.54337 | -120.43288 | 39030 ft | 440 kts | 338° |
| 2026-05-05 16:58 | 40.59616 | -120.47407 | 39280 ft | 441 kts | 338° |
| 2026-05-05 16:58 | 40.62257 | -120.49474 | 39397 ft | 442 kts | 338° |
| 2026-05-05 16:58 | 40.64888 | -120.51534 | 39534 ft | 442 kts | 338° |
| 2026-05-05 16:59 | 40.67504 | -120.53586 | 39700 ft | 441 kts | 338° |
| 2026-05-05 16:59 | 40.70156 | -120.55668 | 39858 ft | 441 kts | 338° |
| 2026-05-05 16:59 | 40.75420 | -120.59808 | 40025 ft | 437 kts | 338° |
| 2026-05-05 17:00 | 40.80632 | -120.63913 | 40038 ft | 437 kts | 338° |
| 2026-05-05 17:00 | 40.85870 | -120.68046 | 40019 ft | 438 kts | 337° |
| 2026-05-05 17:01 | 40.91095 | -120.72177 | 40015 ft | 439 kts | 337° |
| 2026-05-05 17:01 | 40.96332 | -120.76326 | 40019 ft | 439 kts | 337° |
| 2026-05-05 17:02 | 41.01576 | -120.80488 | 40015 ft | 439 kts | 337° |
| 2026-05-05 17:02 | 41.06792 | -120.84635 | 40013 ft | 439 kts | 338° |
| 2026-05-05 17:03 | 41.12038 | -120.88814 | 40039 ft | 439 kts | 337° |
| 2026-05-05 17:03 | 41.17311 | -120.93021 | 40040 ft | 439 kts | 337° |
| 2026-05-05 17:04 | 41.22509 | -120.97179 | 40052 ft | 439 kts | 337° |
| 2026-05-05 17:04 | 41.27747 | -121.01376 | 40056 ft | 440 kts | 337° |
| 2026-05-05 17:05 | 41.32980 | -121.05576 | 40055 ft | 440 kts | 337° |
| 2026-05-05 17:05 | 41.38203 | -121.09775 | 40055 ft | 439 kts | 337° |
| 2026-05-05 17:06 | 41.43467 | -121.14017 | 40057 ft | 440 kts | 337° |
| 2026-05-05 17:06 | 41.48706 | -121.18246 | 40056 ft | 440 kts | 337° |
| 2026-05-05 17:07 | 41.53937 | -121.22478 | 40054 ft | 439 kts | 336° |
| 2026-05-05 17:07 | 41.59145 | -121.26698 | 40055 ft | 439 kts | 336° |
| 2026-05-05 17:08 | 41.64392 | -121.30957 | 40060 ft | 440 kts | 336° |
| 2026-05-05 17:08 | 41.69627 | -121.35215 | 40060 ft | 440 kts | 336° |
| 2026-05-05 17:09 | 41.74829 | -121.39456 | 40058 ft | 440 kts | 336° |
| 2026-05-05 17:09 | 41.80048 | -121.43718 | 40061 ft | 439 kts | 336° |
| 2026-05-05 17:10 | 41.85250 | -121.47974 | 40061 ft | 440 kts | 336° |
| 2026-05-05 17:10 | 41.90508 | -121.52284 | 40056 ft | 441 kts | 336° |
| 2026-05-05 17:11 | 41.95721 | -121.56566 | 40054 ft | 441 kts | 336° |
| 2026-05-05 17:11 | 42.00949 | -121.60868 | 40044 ft | 441 kts | 336° |
| 2026-05-05 17:12 | 42.06179 | -121.65182 | 40033 ft | 441 kts | 335° |
| 2026-05-05 17:12 | 42.11450 | -121.69537 | 40028 ft | 441 kts | 335° |
| 2026-05-05 17:13 | 42.16916 | -121.72884 | 40043 ft | 427 kts | 352° |
| 2026-05-05 17:13 | 42.22706 | -121.74349 | 40033 ft | 424 kts | 355° |
| 2026-05-05 17:14 | 42.28513 | -121.75710 | 40050 ft | 423 kts | 355° |
| 2026-05-05 17:14 | 42.34307 | -121.77044 | 40065 ft | 423 kts | 355° |
| 2026-05-05 17:15 | 42.40067 | -121.78364 | 40069 ft | 422 kts | 355° |
| 2026-05-05 17:15 | 42.45863 | -121.79690 | 40076 ft | 423 kts | 355° |
| 2026-05-05 17:16 | 42.51653 | -121.81014 | 40085 ft | 423 kts | 355° |
| 2026-05-05 17:16 | 42.57435 | -121.82340 | 40081 ft | 422 kts | 355° |
| 2026-05-05 17:17 | 42.63236 | -121.83671 | 40089 ft | 423 kts | 355° |
| 2026-05-05 17:17 | 42.69044 | -121.85007 | 40086 ft | 423 kts | 355° |
| 2026-05-05 17:18 | 42.74834 | -121.86341 | 40091 ft | 421 kts | 355° |
| 2026-05-05 17:18 | 42.80615 | -121.87676 | 40098 ft | 422 kts | 355° |
| 2026-05-05 17:19 | 42.86366 | -121.89005 | 40100 ft | 422 kts | 355° |
| 2026-05-05 17:19 | 42.92139 | -121.90343 | 40103 ft | 421 kts | 355° |
| 2026-05-05 17:20 | 42.97910 | -121.91682 | 40106 ft | 421 kts | 355° |
| 2026-05-05 17:20 | 43.03686 | -121.93026 | 40113 ft | 421 kts | 355° |
| 2026-05-05 17:21 | 43.09457 | -121.94371 | 40113 ft | 420 kts | 355° |
| 2026-05-05 17:22 | 43.18124 | -121.96395 | 40123 ft | 421 kts | 355° |
| 2026-05-05 17:22 | 43.23887 | -121.97744 | 40122 ft | 421 kts | 355° |
| 2026-05-05 17:23 | 43.29668 | -121.99101 | 40124 ft | 420 kts | 355° |
| 2026-05-05 17:23 | 43.35460 | -122.00462 | 40118 ft | 421 kts | 355° |
| 2026-05-05 17:24 | 43.41193 | -122.01812 | 40114 ft | 421 kts | 355° |
| 2026-05-05 17:24 | 43.46977 | -122.03178 | 40110 ft | 421 kts | 355° |
| 2026-05-05 17:25 | 43.52781 | -122.04549 | 40103 ft | 420 kts | 355° |
| 2026-05-05 17:25 | 43.58517 | -122.05908 | 40098 ft | 419 kts | 355° |
| 2026-05-05 17:26 | 43.64286 | -122.07277 | 40091 ft | 420 kts | 354° |
| 2026-05-05 17:26 | 43.70027 | -122.08643 | 40086 ft | 419 kts | 355° |
| 2026-05-05 17:27 | 43.75813 | -122.10021 | 40081 ft | 417 kts | 354° |
| 2026-05-05 17:27 | 43.81620 | -122.11407 | 40080 ft | 418 kts | 354° |
| 2026-05-05 17:28 | 43.87327 | -122.12772 | 40078 ft | 418 kts | 354° |
| 2026-05-05 17:28 | 43.93121 | -122.14161 | 40078 ft | 419 kts | 354° |
| 2026-05-05 17:29 | 43.98848 | -122.15537 | 40078 ft | 419 kts | 354° |
| 2026-05-05 17:29 | 44.04576 | -122.16914 | 40075 ft | 418 kts | 354° |
| 2026-05-05 17:30 | 44.10312 | -122.18298 | 40076 ft | 419 kts | 354° |
| 2026-05-05 17:30 | 44.16082 | -122.19691 | 40072 ft | 419 kts | 354° |
| 2026-05-05 17:31 | 44.21788 | -122.21072 | 40067 ft | 418 kts | 354° |
| 2026-05-05 17:31 | 44.27531 | -122.22465 | 40060 ft | 418 kts | 354° |
| 2026-05-05 17:32 | 44.33260 | -122.23857 | 40052 ft | 418 kts | 354° |
| 2026-05-05 17:32 | 44.39024 | -122.25261 | 40052 ft | 417 kts | 354° |
| 2026-05-05 17:33 | 44.44716 | -122.26650 | 40049 ft | 417 kts | 354° |
| 2026-05-05 17:33 | 44.50451 | -122.28051 | 40048 ft | 418 kts | 353° |
| 2026-05-05 17:34 | 44.56145 | -122.29446 | 40046 ft | 417 kts | 353° |
| 2026-05-05 17:34 | 44.61852 | -122.30847 | 40042 ft | 417 kts | 354° |
| 2026-05-05 17:35 | 44.67533 | -122.32243 | 40034 ft | 416 kts | 353° |
| 2026-05-05 17:35 | 44.73236 | -122.33649 | 40035 ft | 417 kts | 353° |
| 2026-05-05 17:36 | 44.78955 | -122.35061 | 40031 ft | 418 kts | 353° |
| 2026-05-05 17:36 | 44.84673 | -122.36475 | 40030 ft | 416 kts | 353° |
| 2026-05-05 17:37 | 44.90363 | -122.37887 | 40028 ft | 415 kts | 353° |
| 2026-05-05 17:37 | 44.96043 | -122.39301 | 40029 ft | 415 kts | 353° |
| 2026-05-05 17:38 | 45.01705 | -122.40739 | 40028 ft | 417 kts | 353° |
| 2026-05-05 17:38 | 45.07400 | -122.42187 | 40025 ft | 416 kts | 353° |
| 2026-05-05 17:39 | 45.13169 | -122.43633 | 40040 ft | 417 kts | 353° |
| 2026-05-05 17:39 | 45.18852 | -122.45049 | 40035 ft | 416 kts | 353° |
| 2026-05-05 17:40 | 45.24528 | -122.46468 | 40035 ft | 415 kts | 353° |
| 2026-05-05 17:40 | 45.30230 | -122.47894 | 40033 ft | 416 kts | 353° |
| 2026-05-05 17:41 | 45.35911 | -122.49320 | 40032 ft | 416 kts | 353° |
| 2026-05-05 17:41 | 45.41602 | -122.50750 | 40037 ft | 415 kts | 353° |
| 2026-05-05 17:42 | 45.47304 | -122.52186 | 40035 ft | 416 kts | 353° |
| 2026-05-05 17:42 | 45.52998 | -122.53622 | 40042 ft | 416 kts | 353° |
| 2026-05-05 17:43 | 45.58666 | -122.55056 | 40036 ft | 415 kts | 353° |
| 2026-05-05 17:43 | 45.64359 | -122.56499 | 40039 ft | 415 kts | 353° |
| 2026-05-05 17:44 | 45.70062 | -122.57948 | 40037 ft | 414 kts | 353° |
| 2026-05-05 17:44 | 45.75734 | -122.59385 | 40038 ft | 415 kts | 353° |
| 2026-05-05 17:45 | 45.81446 | -122.60802 | 40035 ft | 415 kts | 353° |
| 2026-05-05 17:45 | 45.87059 | -122.62200 | 39947 ft | 395 kts | 352° |
| 2026-05-05 17:45 | 45.89706 | -122.62861 | 39135 ft | 388 kts | 353° |
| 2026-05-05 17:46 | 45.92359 | -122.63522 | 38354 ft | 383 kts | 352° |
| 2026-05-05 17:46 | 45.94997 | -122.64178 | 37626 ft | 385 kts | 352° |
| 2026-05-05 17:46 | 45.97625 | -122.64834 | 37007 ft | 391 kts | 352° |
| 2026-05-05 17:46 | 46.00338 | -122.65511 | 36450 ft | 396 kts | 351° |
| 2026-05-05 17:47 | 46.03078 | -122.66197 | 35945 ft | 397 kts | 351° |
| 2026-05-05 17:47 | 46.05802 | -122.66880 | 35469 ft | 398 kts | 351° |
| 2026-05-05 17:47 | 46.08550 | -122.67569 | 34996 ft | 401 kts | 351° |
| 2026-05-05 17:47 | 46.11294 | -122.68258 | 34498 ft | 405 kts | 351° |
| 2026-05-05 17:48 | 46.14079 | -122.68958 | 33918 ft | 409 kts | 351° |
| 2026-05-05 17:48 | 46.16904 | -122.69669 | 33386 ft | 409 kts | 351° |
| 2026-05-05 17:48 | 46.19691 | -122.70372 | 32861 ft | 410 kts | 351° |
| 2026-05-05 17:48 | 46.22492 | -122.71078 | 32343 ft | 413 kts | 351° |
| 2026-05-05 17:49 | 46.25351 | -122.71799 | 31804 ft | 416 kts | 351° |
| 2026-05-05 17:49 | 46.28204 | -122.72520 | 31260 ft | 418 kts | 351° |
| 2026-05-05 17:49 | 46.31054 | -122.73241 | 30705 ft | 421 kts | 351° |
| 2026-05-05 17:49 | 46.33937 | -122.73971 | 30133 ft | 423 kts | 351° |
| 2026-05-05 17:50 | 46.36840 | -122.74707 | 29534 ft | 425 kts | 351° |
| 2026-05-05 17:50 | 46.39735 | -122.75442 | 28916 ft | 422 kts | 351° |
| 2026-05-05 17:50 | 46.42617 | -122.76174 | 28304 ft | 416 kts | 351° |
| 2026-05-05 17:50 | 46.45445 | -122.76894 | 27716 ft | 410 kts | 351° |
| 2026-05-05 17:51 | 46.48226 | -122.77602 | 27150 ft | 405 kts | 351° |
| 2026-05-05 17:51 | 46.50990 | -122.78306 | 26601 ft | 402 kts | 351° |
| 2026-05-05 17:51 | 46.53741 | -122.79008 | 26052 ft | 401 kts | 351° |
| 2026-05-05 17:51 | 46.56510 | -122.79715 | 25492 ft | 399 kts | 351° |
| 2026-05-05 17:52 | 46.59237 | -122.80411 | 24922 ft | 396 kts | 351° |
| 2026-05-05 17:52 | 46.61921 | -122.81098 | 24377 ft | 392 kts | 351° |
| 2026-05-05 17:52 | 46.64636 | -122.81794 | 23839 ft | 388 kts | 351° |
| 2026-05-05 17:52 | 46.67302 | -122.82477 | 23323 ft | 384 kts | 351° |
| 2026-05-05 17:53 | 46.69907 | -122.83146 | 22813 ft | 381 kts | 351° |
| 2026-05-05 17:53 | 46.72556 | -122.83826 | 22301 ft | 379 kts | 351° |
| 2026-05-05 17:53 | 46.75186 | -122.84503 | 21788 ft | 377 kts | 351° |
| 2026-05-05 17:53 | 46.77798 | -122.85175 | 21266 ft | 375 kts | 351° |
| 2026-05-05 17:54 | 46.80355 | -122.85834 | 20749 ft | 372 kts | 352° |
| 2026-05-05 17:54 | 46.82872 | -122.86484 | 20264 ft | 368 kts | 352° |
| 2026-05-05 17:54 | 46.85365 | -122.87127 | 19807 ft | 366 kts | 352° |
| 2026-05-05 17:54 | 46.87904 | -122.87783 | 19337 ft | 365 kts | 352° |
| 2026-05-05 17:55 | 46.90413 | -122.88432 | 18799 ft | 367 kts | 352° |
| 2026-05-05 17:55 | 46.92943 | -122.89074 | 18279 ft | 360 kts | 354° |
| 2026-05-05 17:55 | 46.95356 | -122.89100 | 18251 ft | 338 kts | 9° |
| 2026-05-05 17:55 | 46.97599 | -122.88174 | 17775 ft | 333 kts | 25° |
| 2026-05-05 17:56 | 46.99527 | -122.86412 | 17536 ft | 323 kts | 34° |
| 2026-05-05 17:56 | 47.01308 | -122.84452 | 17169 ft | 322 kts | 36° |
| 2026-05-05 17:56 | 47.03083 | -122.82393 | 16751 ft | 325 kts | 37° |
| 2026-05-05 17:56 | 47.04823 | -122.80290 | 16341 ft | 324 kts | 38° |
| 2026-05-05 17:57 | 47.06544 | -122.78162 | 15945 ft | 321 kts | 38° |
| 2026-05-05 17:57 | 47.08224 | -122.76057 | 15576 ft | 319 kts | 39° |
| 2026-05-05 17:57 | 47.09892 | -122.73949 | 15213 ft | 319 kts | 39° |
| 2026-05-05 17:57 | 47.11581 | -122.71803 | 14847 ft | 319 kts | 39° |
| 2026-05-05 17:58 | 47.13242 | -122.69685 | 14460 ft | 318 kts | 39° |
| 2026-05-05 17:58 | 47.14907 | -122.67555 | 14073 ft | 316 kts | 39° |
| 2026-05-05 17:58 | 47.16539 | -122.65464 | 13695 ft | 314 kts | 39° |
| 2026-05-05 17:58 | 47.18182 | -122.63357 | 13353 ft | 311 kts | 39° |
| 2026-05-05 17:59 | 47.19793 | -122.61289 | 13178 ft | 303 kts | 40° |
| 2026-05-05 17:59 | 47.21349 | -122.59287 | 13114 ft | 289 kts | 39° |
| 2026-05-05 17:59 | 47.22857 | -122.57346 | 12923 ft | 286 kts | 39° |
| 2026-05-05 17:59 | 47.24339 | -122.55438 | 12962 ft | 285 kts | 39° |
| 2026-05-05 18:00 | 47.25840 | -122.53506 | 12965 ft | 291 kts | 39° |
| 2026-05-05 18:00 | 47.27373 | -122.51529 | 12958 ft | 291 kts | 39° |
| 2026-05-05 18:00 | 47.28873 | -122.49593 | 12961 ft | 290 kts | 39° |
| 2026-05-05 18:00 | 47.30450 | -122.47755 | 12941 ft | 288 kts | 29° |
| 2026-05-05 18:01 | 47.32316 | -122.46676 | 12723 ft | 291 kts | 10° |
| 2026-05-05 18:01 | 47.34353 | -122.46517 | 12397 ft | 293 kts | 358° |
| 2026-05-05 18:01 | 47.36370 | -122.46677 | 11917 ft | 294 kts | 357° |
| 2026-05-05 18:01 | 47.38427 | -122.46840 | 11430 ft | 295 kts | 357° |
| 2026-05-05 18:02 | 47.40461 | -122.46993 | 10946 ft | 295 kts | 357° |
| 2026-05-05 18:02 | 47.42525 | -122.47141 | 10431 ft | 294 kts | 357° |
| 2026-05-05 18:02 | 47.44494 | -122.47268 | 9881 ft | 279 kts | 357° |
| 2026-05-05 18:02 | 47.46386 | -122.47377 | 9381 ft | 265 kts | 357° |
| 2026-05-05 18:03 | 47.48208 | -122.47473 | 8877 ft | 255 kts | 357° |
| 2026-05-05 18:03 | 47.49939 | -122.47562 | 8378 ft | 247 kts | 357° |
| 2026-05-05 18:03 | 47.51631 | -122.47643 | 7875 ft | 240 kts | 357° |
| 2026-05-05 18:03 | 47.53275 | -122.47721 | 7374 ft | 235 kts | 357° |
| 2026-05-05 18:04 | 47.54896 | -122.47799 | 6871 ft | 231 kts | 357° |
| 2026-05-05 18:04 | 47.56482 | -122.47870 | 6373 ft | 227 kts | 357° |
| 2026-05-05 18:04 | 47.58080 | -122.47930 | 5857 ft | 225 kts | 357° |
| 2026-05-05 18:04 | 47.59621 | -122.48096 | 5372 ft | 222 kts | 342° |
| 2026-05-05 18:05 | 47.61002 | -122.48991 | 4934 ft | 221 kts | 330° |
| 2026-05-05 18:05 | 47.62365 | -122.50111 | 4640 ft | 222 kts | 330° |
| 2026-05-05 18:05 | 47.63734 | -122.51139 | 4403 ft | 221 kts | 344° |
| 2026-05-05 18:05 | 47.65245 | -122.51244 | 4190 ft | 218 kts | 8° |
| 2026-05-05 18:06 | 47.66722 | -122.50831 | 3943 ft | 218 kts | 11° |
| 2026-05-05 18:06 | 47.67701 | -122.50372 | 3764 ft | 218 kts | 29° |
| 2026-05-05 18:06 | 47.68937 | -122.48154 | 3471 ft | 214 kts | 76° |
| 2026-05-05 18:06 | 47.68895 | -122.46014 | 3255 ft | 210 kts | 111° |
| 2026-05-05 18:07 | 47.68254 | -122.44089 | 3028 ft | 209 kts | 119° |
| 2026-05-05 18:07 | 47.67321 | -122.42458 | 2793 ft | 207 kts | 146° |
| 2026-05-05 18:07 | 47.66132 | -122.41409 | 2592 ft | 189 kts | 149° |
| 2026-05-05 18:07 | 47.65070 | -122.40471 | 2403 ft | 167 kts | 148° |
| 2026-05-05 18:08 | 47.64120 | -122.39645 | 2151 ft | 152 kts | 149° |
| 2026-05-05 18:08 | 47.63250 | -122.38895 | 1922 ft | 137 kts | 149° |
| 2026-05-05 18:08 | 47.62489 | -122.38244 | 1888 ft | 119 kts | 150° |
| 2026-05-05 18:08 | 47.61721 | -122.37593 | 1791 ft | 134 kts | 151° |
| 2026-05-05 18:09 | 47.60910 | -122.36909 | 1588 ft | 131 kts | 150° |
| 2026-05-05 18:09 | 47.60139 | -122.36256 | 1404 ft | 127 kts | 150° |
| 2026-05-05 18:09 | 47.59366 | -122.35604 | 1236 ft | 128 kts | 150° |
| 2026-05-05 18:09 | 47.58585 | -122.34946 | 1062 ft | 128 kts | 150° |
| 2026-05-05 18:10 | 47.57810 | -122.34298 | 888 ft | 126 kts | 151° |
| 2026-05-05 18:10 | 47.57051 | -122.33663 | 713 ft | 125 kts | 151° |
| 2026-05-05 18:10 | 47.56290 | -122.33022 | 538 ft | 125 kts | 152° |
| 2026-05-05 18:10 | 47.55532 | -122.32384 | 374 ft | 125 kts | 152° |
| 2026-05-05 18:11 | 47.54779 | -122.31750 | 227 ft | 125 kts | 152° |
| 2026-05-05 18:11 | 47.54037 | -122.31125 | 64 ft | 122 kts | 152° |
| 2026-05-05 18:11 | 47.53307 | -122.30515 | 24 ft | 111 kts | 152° |
| 2026-05-05 18:11 | 47.52770 | -122.30061 | 24 ft | 63 kts | 151° |
| 2026-05-05 18:12 | 47.52460 | -122.29787 | 24 ft | 40 kts | 148° |
| 2026-05-05 18:12 | 47.52289 | -122.29638 | 24 ft | 13 kts | 115° |
| 2026-05-05 18:12 | 47.52315 | -122.29534 | 25 ft | 11 kts | 62° |
| 2026-05-05 18:12 | 47.52359 | -122.29500 | 25 ft | 5 kts | 334° |
| 2026-05-05 18:13 | 47.52427 | -122.29572 | 25 ft | 24 kts | 322° |
| 2026-05-05 18:13 | 47.52587 | -122.29736 | 24 ft | 29 kts | 331° |
| 2026-05-05 18:13 | 47.52771 | -122.29849 | 25 ft | 26 kts | 9° |
| 2026-05-05 18:13 | 47.52897 | -122.29859 | 25 ft | 16 kts | 330° |
| 2026-05-05 18:14 | 47.53000 | -122.29947 | 25 ft | 17 kts | 329° |
| 2026-05-05 18:14 | 47.53109 | -122.30043 | 26 ft | 19 kts | 330° |
| 2026-05-05 18:14 | 47.53231 | -122.30148 | 25 ft | 20 kts | 335° |
| 2026-05-05 18:14 | 47.53360 | -122.30251 | 26 ft | 21 kts | 330° |
| 2026-05-05 18:15 | 47.53494 | -122.30370 | 25 ft | 23 kts | 328° |
| 2026-05-05 18:15 | 47.53633 | -122.30506 | 25 ft | 24 kts | 319° |
| 2026-05-05 18:15 | 47.53737 | -122.30561 | 26 ft | 9 kts | 25° |
| 2026-05-05 18:15 | 47.53766 | -122.30509 | 27 ft | 7 kts | 53° |
| 2026-05-05 18:16 | 47.53770 | -122.30500 | 27 ft | 0 kts | 53° |